sensor_id;sensor_type;location;lat;lon;timestamp;P1;durP1;ratioP1;P2;durP2;ratioP2
41219;SDS011;26951;47.338;9.196;2024-03-22T00:00:52;4.18;;;3.10;;
41219;SDS011;26951;47.338;9.196;2024-03-22T00:03:36;3.65;;;3.05;;
41219;SDS011;26951;47.338;9.196;2024-03-22T00:06:20;3.28;;;2.97;;
41219;SDS011;26951;47.338;9.196;2024-03-22T00:09:05;5.07;;;3.38;;
41219;SDS011;26951;47.338;9.196;2024-03-22T00:11:49;3.33;;;2.93;;
41219;SDS011;26951;47.338;9.196;2024-03-22T00:14:33;3.00;;;2.70;;
41219;SDS011;26951;47.338;9.196;2024-03-22T00:17:18;4.00;;;3.60;;
41219;SDS011;26951;47.338;9.196;2024-03-22T00:20:02;3.53;;;3.22;;
41219;SDS011;26951;47.338;9.196;2024-03-22T00:22:46;4.53;;;3.97;;
41219;SDS011;26951;47.338;9.196;2024-03-22T00:25:30;4.45;;;3.33;;
41219;SDS011;26951;47.338;9.196;2024-03-22T00:28:15;3.47;;;3.17;;
41219;SDS011;26951;47.338;9.196;2024-03-22T00:30:59;3.40;;;3.08;;
41219;SDS011;26951;47.338;9.196;2024-03-22T00:33:44;3.88;;;3.40;;
41219;SDS011;26951;47.338;9.196;2024-03-22T00:36:28;5.20;;;3.10;;
41219;SDS011;26951;47.338;9.196;2024-03-22T00:39:12;4.90;;;3.47;;
41219;SDS011;26951;47.338;9.196;2024-03-22T00:41:56;3.50;;;2.78;;
41219;SDS011;26951;47.338;9.196;2024-03-22T00:44:40;3.95;;;3.35;;
41219;SDS011;26951;47.338;9.196;2024-03-22T00:47:24;4.03;;;3.40;;
41219;SDS011;26951;47.338;9.196;2024-03-22T00:50:08;4.57;;;3.60;;
41219;SDS011;26951;47.338;9.196;2024-03-22T00:52:54;5.10;;;3.58;;
41219;SDS011;26951;47.338;9.196;2024-03-22T00:55:41;3.58;;;3.28;;
41219;SDS011;26951;47.338;9.196;2024-03-22T00:58:26;3.53;;;3.22;;
41219;SDS011;26951;47.338;9.196;2024-03-22T01:04:28;3.75;;;3.05;;
41219;SDS011;26951;47.338;9.196;2024-03-22T01:07:12;4.60;;;3.10;;
41219;SDS011;26951;47.338;9.196;2024-03-22T01:09:56;4.10;;;3.45;;
41219;SDS011;26951;47.338;9.196;2024-03-22T01:12:40;3.63;;;3.13;;
41219;SDS011;26951;47.338;9.196;2024-03-22T01:15:24;4.03;;;3.42;;
41219;SDS011;26951;47.338;9.196;2024-03-22T01:18:08;5.28;;;3.72;;
41219;SDS011;26951;47.338;9.196;2024-03-22T01:20:52;7.47;;;3.47;;
41219;SDS011;26951;47.338;9.196;2024-03-22T01:23:36;4.50;;;3.20;;
41219;SDS011;26951;47.338;9.196;2024-03-22T01:26:21;5.82;;;3.22;;
41219;SDS011;26951;47.338;9.196;2024-03-22T01:29:04;3.78;;;3.38;;
41219;SDS011;26951;47.338;9.196;2024-03-22T01:31:48;4.18;;;3.78;;
41219;SDS011;26951;47.338;9.196;2024-03-22T01:34:32;3.72;;;3.25;;
41219;SDS011;26951;47.338;9.196;2024-03-22T01:37:18;5.90;;;3.38;;
41219;SDS011;26951;47.338;9.196;2024-03-22T01:40:02;4.82;;;3.25;;
41219;SDS011;26951;47.338;9.196;2024-03-22T01:42:48;3.53;;;3.05;;
41219;SDS011;26951;47.338;9.196;2024-03-22T01:45:36;5.20;;;3.38;;
41219;SDS011;26951;47.338;9.196;2024-03-22T01:48:29;4.07;;;2.85;;
41219;SDS011;26951;47.338;9.196;2024-03-22T01:51:14;5.07;;;3.63;;
41219;SDS011;26951;47.338;9.196;2024-03-22T01:54:01;4.15;;;3.60;;
41219;SDS011;26951;47.338;9.196;2024-03-22T01:56:47;3.40;;;3.10;;
41219;SDS011;26951;47.338;9.196;2024-03-22T01:59:32;3.75;;;3.00;;
41219;SDS011;26951;47.338;9.196;2024-03-22T02:02:17;4.78;;;3.67;;
41219;SDS011;26951;47.338;9.196;2024-03-22T02:05:14;4.88;;;3.85;;
41219;SDS011;26951;47.338;9.196;2024-03-22T02:07:59;4.78;;;3.53;;
41219;SDS011;26951;47.338;9.196;2024-03-22T02:10:43;4.40;;;3.90;;
41219;SDS011;26951;47.338;9.196;2024-03-22T02:13:28;6.25;;;3.42;;
41219;SDS011;26951;47.338;9.196;2024-03-22T02:16:18;5.93;;;4.00;;
41219;SDS011;26951;47.338;9.196;2024-03-22T02:19:02;3.88;;;3.47;;
41219;SDS011;26951;47.338;9.196;2024-03-22T02:21:46;5.03;;;4.13;;
41219;SDS011;26951;47.338;9.196;2024-03-22T02:24:30;4.28;;;3.40;;
41219;SDS011;26951;47.338;9.196;2024-03-22T02:27:14;5.55;;;3.65;;
41219;SDS011;26951;47.338;9.196;2024-03-22T02:29:58;4.75;;;3.47;;
41219;SDS011;26951;47.338;9.196;2024-03-22T02:32:42;3.53;;;3.22;;
41219;SDS011;26951;47.338;9.196;2024-03-22T02:35:27;5.60;;;4.00;;
41219;SDS011;26951;47.338;9.196;2024-03-22T02:38:11;5.30;;;4.15;;
41219;SDS011;26951;47.338;9.196;2024-03-22T02:40:55;8.25;;;4.40;;
41219;SDS011;26951;47.338;9.196;2024-03-22T02:43:41;5.22;;;3.70;;
41219;SDS011;26951;47.338;9.196;2024-03-22T02:46:25;6.50;;;4.63;;
41219;SDS011;26951;47.338;9.196;2024-03-22T02:49:09;3.53;;;3.22;;
41219;SDS011;26951;47.338;9.196;2024-03-22T02:51:53;4.38;;;3.50;;
41219;SDS011;26951;47.338;9.196;2024-03-22T02:54:37;4.15;;;3.65;;
41219;SDS011;26951;47.338;9.196;2024-03-22T02:57:21;4.13;;;3.38;;
41219;SDS011;26951;47.338;9.196;2024-03-22T03:00:05;4.35;;;3.30;;
41219;SDS011;26951;47.338;9.196;2024-03-22T03:02:50;4.68;;;3.03;;
41219;SDS011;26951;47.338;9.196;2024-03-22T03:05:35;4.53;;;3.88;;
41219;SDS011;26951;47.338;9.196;2024-03-22T03:08:19;3.63;;;3.13;;
41219;SDS011;26951;47.338;9.196;2024-03-22T03:11:03;4.13;;;3.60;;
41219;SDS011;26951;47.338;9.196;2024-03-22T03:13:47;4.30;;;3.80;;
41219;SDS011;26951;47.338;9.196;2024-03-22T03:16:31;7.53;;;3.50;;
41219;SDS011;26951;47.338;9.196;2024-03-22T03:19:15;5.35;;;4.18;;
41219;SDS011;26951;47.338;9.196;2024-03-22T03:21:59;4.60;;;3.95;;
41219;SDS011;26951;47.338;9.196;2024-03-22T03:24:44;4.60;;;3.78;;
41219;SDS011;26951;47.338;9.196;2024-03-22T03:27:28;3.80;;;3.40;;
41219;SDS011;26951;47.338;9.196;2024-03-22T03:30:12;3.75;;;3.15;;
41219;SDS011;26951;47.338;9.196;2024-03-22T03:32:56;3.80;;;2.97;;
41219;SDS011;26951;47.338;9.196;2024-03-22T03:35:44;5.32;;;3.72;;
41219;SDS011;26951;47.338;9.196;2024-03-22T03:38:29;4.55;;;4.05;;
41219;SDS011;26951;47.338;9.196;2024-03-22T03:41:13;6.47;;;3.60;;
41219;SDS011;26951;47.338;9.196;2024-03-22T03:43:57;4.45;;;4.05;;
41219;SDS011;26951;47.338;9.196;2024-03-22T03:46:41;5.30;;;4.05;;
41219;SDS011;26951;47.338;9.196;2024-03-22T03:49:25;4.60;;;3.33;;
41219;SDS011;26951;47.338;9.196;2024-03-22T03:52:09;6.97;;;3.63;;
41219;SDS011;26951;47.338;9.196;2024-03-22T03:54:53;3.42;;;3.08;;
41219;SDS011;26951;47.338;9.196;2024-03-22T03:57:37;3.58;;;3.08;;
41219;SDS011;26951;47.338;9.196;2024-03-22T04:00:21;5.07;;;3.50;;
41219;SDS011;26951;47.338;9.196;2024-03-22T04:03:05;4.20;;;3.80;;
41219;SDS011;26951;47.338;9.196;2024-03-22T04:05:56;4.32;;;3.20;;
41219;SDS011;26951;47.338;9.196;2024-03-22T04:08:43;4.97;;;3.50;;
41219;SDS011;26951;47.338;9.196;2024-03-22T04:11:27;3.53;;;2.83;;
41219;SDS011;26951;47.338;9.196;2024-03-22T04:14:11;3.83;;;3.53;;
41219;SDS011;26951;47.338;9.196;2024-03-22T04:16:55;5.63;;;3.22;;
41219;SDS011;26951;47.338;9.196;2024-03-22T04:19:39;4.90;;;3.55;;
41219;SDS011;26951;47.338;9.196;2024-03-22T04:22:23;4.32;;;3.50;;
41219;SDS011;26951;47.338;9.196;2024-03-22T04:25:08;4.80;;;3.50;;
41219;SDS011;26951;47.338;9.196;2024-03-22T04:27:55;4.18;;;2.80;;
41219;SDS011;26951;47.338;9.196;2024-03-22T04:30:39;3.38;;;2.80;;
41219;SDS011;26951;47.338;9.196;2024-03-22T04:33:23;4.05;;;2.75;;
41219;SDS011;26951;47.338;9.196;2024-03-22T04:36:08;4.63;;;3.38;;
41219;SDS011;26951;47.338;9.196;2024-03-22T04:38:55;5.00;;;3.50;;
41219;SDS011;26951;47.338;9.196;2024-03-22T04:41:39;4.25;;;3.65;;
41219;SDS011;26951;47.338;9.196;2024-03-22T04:44:23;6.38;;;4.25;;
41219;SDS011;26951;47.338;9.196;2024-03-22T04:47:08;4.32;;;3.20;;
41219;SDS011;26951;47.338;9.196;2024-03-22T04:49:52;3.97;;;3.22;;
41219;SDS011;26951;47.338;9.196;2024-03-22T04:52:36;5.40;;;3.42;;
41219;SDS011;26951;47.338;9.196;2024-03-22T04:55:20;3.38;;;3.00;;
41219;SDS011;26951;47.338;9.196;2024-03-22T04:58:04;4.95;;;3.08;;
41219;SDS011;26951;47.338;9.196;2024-03-22T05:00:48;3.70;;;3.40;;
41219;SDS011;26951;47.338;9.196;2024-03-22T05:03:33;4.82;;;3.75;;
41219;SDS011;26951;47.338;9.196;2024-03-22T05:06:17;5.15;;;3.45;;
41219;SDS011;26951;47.338;9.196;2024-03-22T05:09:02;4.57;;;3.23;;
41219;SDS011;26951;47.338;9.196;2024-03-22T05:11:47;6.85;;;3.97;;
41219;SDS011;26951;47.338;9.196;2024-03-22T05:14:34;4.20;;;3.78;;
41219;SDS011;26951;47.338;9.196;2024-03-22T05:17:19;3.88;;;3.05;;
41219;SDS011;26951;47.338;9.196;2024-03-22T05:20:03;4.82;;;4.20;;
41219;SDS011;26951;47.338;9.196;2024-03-22T05:22:49;3.80;;;3.47;;
41219;SDS011;26951;47.338;9.196;2024-03-22T05:25:33;5.90;;;3.88;;
41219;SDS011;26951;47.338;9.196;2024-03-22T05:28:17;3.70;;;3.40;;
41219;SDS011;26951;47.338;9.196;2024-03-22T05:31:01;5.15;;;3.90;;
41219;SDS011;26951;47.338;9.196;2024-03-22T05:33:45;4.47;;;3.83;;
41219;SDS011;26951;47.338;9.196;2024-03-22T05:36:30;5.65;;;3.55;;
41219;SDS011;26951;47.338;9.196;2024-03-22T05:39:14;7.95;;;4.40;;
41219;SDS011;26951;47.338;9.196;2024-03-22T05:41:58;3.75;;;3.33;;
41219;SDS011;26951;47.338;9.196;2024-03-22T05:44:43;4.32;;;3.92;;
41219;SDS011;26951;47.338;9.196;2024-03-22T05:47:28;5.47;;;4.10;;
41219;SDS011;26951;47.338;9.196;2024-03-22T05:50:14;4.03;;;3.65;;
41219;SDS011;26951;47.338;9.196;2024-03-22T05:52:58;6.35;;;3.67;;
41219;SDS011;26951;47.338;9.196;2024-03-22T05:55:43;4.38;;;3.67;;
41219;SDS011;26951;47.338;9.196;2024-03-22T05:58:27;4.50;;;3.65;;
41219;SDS011;26951;47.338;9.196;2024-03-22T06:01:11;7.85;;;4.45;;
41219;SDS011;26951;47.338;9.196;2024-03-22T06:03:55;4.80;;;3.05;;
41219;SDS011;26951;47.338;9.196;2024-03-22T06:06:39;4.00;;;3.17;;
41219;SDS011;26951;47.338;9.196;2024-03-22T06:09:23;3.58;;;3.25;;
41219;SDS011;26951;47.338;9.196;2024-03-22T06:12:08;4.00;;;3.40;;
41219;SDS011;26951;47.338;9.196;2024-03-22T06:14:52;3.97;;;3.58;;
41219;SDS011;26951;47.338;9.196;2024-03-22T06:17:36;5.13;;;3.83;;
41219;SDS011;26951;47.338;9.196;2024-03-22T06:20:20;4.63;;;3.47;;
41219;SDS011;26951;47.338;9.196;2024-03-22T06:23:04;6.40;;;3.55;;
41219;SDS011;26951;47.338;9.196;2024-03-22T06:25:52;5.68;;;4.13;;
41219;SDS011;26951;47.338;9.196;2024-03-22T06:28:36;4.25;;;3.85;;
41219;SDS011;26951;47.338;9.196;2024-03-22T06:31:20;4.22;;;3.45;;
41219;SDS011;26951;47.338;9.196;2024-03-22T06:34:04;4.63;;;3.35;;
41219;SDS011;26951;47.338;9.196;2024-03-22T06:36:49;5.32;;;3.50;;
41219;SDS011;26951;47.338;9.196;2024-03-22T06:39:34;3.53;;;2.80;;
41219;SDS011;26951;47.338;9.196;2024-03-22T06:42:18;5.00;;;2.72;;
41219;SDS011;26951;47.338;9.196;2024-03-22T06:45:02;3.00;;;2.60;;
41219;SDS011;26951;47.338;9.196;2024-03-22T06:47:47;4.75;;;2.75;;
41219;SDS011;26951;47.338;9.196;2024-03-22T06:50:31;3.20;;;2.90;;
41219;SDS011;26951;47.338;9.196;2024-03-22T06:53:15;4.07;;;3.10;;
41219;SDS011;26951;47.338;9.196;2024-03-22T06:55:59;2.42;;;2.20;;
41219;SDS011;26951;47.338;9.196;2024-03-22T06:58:44;4.05;;;2.17;;
41219;SDS011;26951;47.338;9.196;2024-03-22T07:01:28;3.13;;;2.45;;
41219;SDS011;26951;47.338;9.196;2024-03-22T07:04:13;3.17;;;2.40;;
41219;SDS011;26951;47.338;9.196;2024-03-22T07:06:57;4.10;;;1.97;;
41219;SDS011;26951;47.338;9.196;2024-03-22T07:09:41;1.98;;;1.77;;
41219;SDS011;26951;47.338;9.196;2024-03-22T07:12:27;2.95;;;1.92;;
41219;SDS011;26951;47.338;9.196;2024-03-22T07:15:11;4.60;;;2.85;;
41219;SDS011;26951;47.338;9.196;2024-03-22T07:17:55;4.15;;;1.95;;
41219;SDS011;26951;47.338;9.196;2024-03-22T07:20:45;2.78;;;1.83;;
41219;SDS011;26951;47.338;9.196;2024-03-22T07:23:30;2.80;;;1.90;;
41219;SDS011;26951;47.338;9.196;2024-03-22T07:26:14;2.42;;;2.08;;
41219;SDS011;26951;47.338;9.196;2024-03-22T07:28:58;2.35;;;1.90;;
41219;SDS011;26951;47.338;9.196;2024-03-22T07:31:42;3.40;;;2.22;;
41219;SDS011;26951;47.338;9.196;2024-03-22T07:34:26;2.63;;;1.90;;
41219;SDS011;26951;47.338;9.196;2024-03-22T07:37:10;4.47;;;2.05;;
41219;SDS011;26951;47.338;9.196;2024-03-22T07:39:54;4.78;;;2.13;;
41219;SDS011;26951;47.338;9.196;2024-03-22T07:42:38;3.25;;;2.20;;
41219;SDS011;26951;47.338;9.196;2024-03-22T07:45:23;3.70;;;2.08;;
41219;SDS011;26951;47.338;9.196;2024-03-22T07:48:07;3.25;;;2.50;;
41219;SDS011;26951;47.338;9.196;2024-03-22T07:50:57;4.45;;;2.95;;
41219;SDS011;26951;47.338;9.196;2024-03-22T07:53:42;5.95;;;2.67;;
41219;SDS011;26951;47.338;9.196;2024-03-22T07:56:26;3.95;;;2.85;;
41219;SDS011;26951;47.338;9.196;2024-03-22T07:59:10;2.97;;;2.38;;
41219;SDS011;26951;47.338;9.196;2024-03-22T08:01:54;3.00;;;2.03;;
41219;SDS011;26951;47.338;9.196;2024-03-22T08:04:38;3.30;;;2.38;;
41219;SDS011;26951;47.338;9.196;2024-03-22T08:07:22;2.42;;;1.98;;
41219;SDS011;26951;47.338;9.196;2024-03-22T08:10:06;4.72;;;3.05;;
41219;SDS011;26951;47.338;9.196;2024-03-22T08:12:51;2.03;;;1.83;;
41219;SDS011;26951;47.338;9.196;2024-03-22T08:15:36;4.82;;;2.28;;
41219;SDS011;26951;47.338;9.196;2024-03-22T08:18:20;3.40;;;1.77;;
41219;SDS011;26951;47.338;9.196;2024-03-22T08:21:04;2.90;;;1.80;;
41219;SDS011;26951;47.338;9.196;2024-03-22T08:23:49;2.53;;;2.15;;
41219;SDS011;26951;47.338;9.196;2024-03-22T08:26:33;5.90;;;1.70;;
41219;SDS011;26951;47.338;9.196;2024-03-22T08:29:17;2.70;;;1.52;;
41219;SDS011;26951;47.338;9.196;2024-03-22T08:32:01;2.88;;;1.73;;
41219;SDS011;26951;47.338;9.196;2024-03-22T08:34:48;3.00;;;1.65;;
41219;SDS011;26951;47.338;9.196;2024-03-22T08:37:32;2.97;;;1.70;;
41219;SDS011;26951;47.338;9.196;2024-03-22T08:40:17;3.35;;;1.70;;
41219;SDS011;26951;47.338;9.196;2024-03-22T08:43:01;2.45;;;1.70;;
41219;SDS011;26951;47.338;9.196;2024-03-22T08:45:45;4.33;;;2.00;;
41219;SDS011;26951;47.338;9.196;2024-03-22T08:48:30;2.20;;;1.70;;
41219;SDS011;26951;47.338;9.196;2024-03-22T08:51:14;2.00;;;1.48;;
41219;SDS011;26951;47.338;9.196;2024-03-22T08:53:58;1.70;;;1.40;;
41219;SDS011;26951;47.338;9.196;2024-03-22T08:56:42;2.00;;;1.60;;
41219;SDS011;26951;47.338;9.196;2024-03-22T08:59:26;2.40;;;2.00;;
41219;SDS011;26951;47.338;9.196;2024-03-22T09:02:10;2.10;;;1.60;;
41219;SDS011;26951;47.338;9.196;2024-03-22T09:04:56;4.13;;;1.95;;
41219;SDS011;26951;47.338;9.196;2024-03-22T09:07:40;1.92;;;1.65;;
41219;SDS011;26951;47.338;9.196;2024-03-22T09:10:24;2.63;;;1.67;;
41219;SDS011;26951;47.338;9.196;2024-03-22T09:13:07;1.95;;;1.70;;
41219;SDS011;26951;47.338;9.196;2024-03-22T09:15:59;2.30;;;1.75;;
41219;SDS011;26951;47.338;9.196;2024-03-22T09:18:44;2.63;;;1.75;;
41219;SDS011;26951;47.338;9.196;2024-03-22T09:21:28;4.47;;;2.35;;
41219;SDS011;26951;47.338;9.196;2024-03-22T09:24:12;3.67;;;1.60;;
41219;SDS011;26951;47.338;9.196;2024-03-22T09:26:56;1.70;;;1.48;;
41219;SDS011;26951;47.338;9.196;2024-03-22T09:29:40;1.75;;;1.63;;
41219;SDS011;26951;47.338;9.196;2024-03-22T09:32:24;1.65;;;1.55;;
41219;SDS011;26951;47.338;9.196;2024-03-22T09:35:11;2.22;;;1.67;;
41219;SDS011;26951;47.338;9.196;2024-03-22T09:37:58;2.28;;;1.40;;
41219;SDS011;26951;47.338;9.196;2024-03-22T09:40:42;1.63;;;1.40;;
41219;SDS011;26951;47.338;9.196;2024-03-22T09:43:27;1.90;;;1.45;;
41219;SDS011;26951;47.338;9.196;2024-03-22T09:48:57;1.92;;;1.42;;
41219;SDS011;26951;47.338;9.196;2024-03-22T09:51:43;1.45;;;1.20;;
41219;SDS011;26951;47.338;9.196;2024-03-22T09:54:27;1.60;;;1.50;;
41219;SDS011;26951;47.338;9.196;2024-03-22T09:57:15;1.65;;;1.30;;
41219;SDS011;26951;47.338;9.196;2024-03-22T10:00:01;2.13;;;1.55;;
41219;SDS011;26951;47.338;9.196;2024-03-22T10:02:46;1.52;;;1.20;;
41219;SDS011;26951;47.338;9.196;2024-03-22T10:05:32;3.25;;;1.70;;
41219;SDS011;26951;47.338;9.196;2024-03-22T10:08:16;3.10;;;1.60;;
41219;SDS011;26951;47.338;9.196;2024-03-22T10:11:03;1.70;;;1.50;;
41219;SDS011;26951;47.338;9.196;2024-03-22T10:13:47;2.50;;;1.40;;
41219;SDS011;26951;47.338;9.196;2024-03-22T10:16:34;3.53;;;1.80;;
41219;SDS011;26951;47.338;9.196;2024-03-22T10:19:19;2.78;;;1.40;;
41219;SDS011;26951;47.338;9.196;2024-03-22T10:22:04;1.80;;;1.42;;
41219;SDS011;26951;47.338;9.196;2024-03-22T10:24:51;2.20;;;1.30;;
41219;SDS011;26951;47.338;9.196;2024-03-22T10:27:39;1.83;;;1.35;;
41219;SDS011;26951;47.338;9.196;2024-03-22T10:30:24;2.33;;;1.33;;
41219;SDS011;26951;47.338;9.196;2024-03-22T10:33:08;2.40;;;1.50;;
41219;SDS011;26951;47.338;9.196;2024-03-22T10:35:53;1.33;;;1.00;;
41219;SDS011;26951;47.338;9.196;2024-03-22T10:38:38;1.05;;;0.95;;
41219;SDS011;26951;47.338;9.196;2024-03-22T10:41:22;1.00;;;0.90;;
41219;SDS011;26951;47.338;9.196;2024-03-22T10:44:06;2.53;;;1.40;;
41219;SDS011;26951;47.338;9.196;2024-03-22T10:46:52;1.55;;;0.95;;
41219;SDS011;26951;47.338;9.196;2024-03-22T10:49:43;1.13;;;0.90;;
41219;SDS011;26951;47.338;9.196;2024-03-22T10:52:33;1.17;;;1.00;;
41219;SDS011;26951;47.338;9.196;2024-03-22T10:58:16;1.42;;;1.25;;
41219;SDS011;26951;47.338;9.196;2024-03-22T11:01:01;2.90;;;1.52;;
41219;SDS011;26951;47.338;9.196;2024-03-22T11:03:48;3.17;;;1.10;;
41219;SDS011;26951;47.338;9.196;2024-03-22T11:06:33;1.42;;;1.08;;
41219;SDS011;26951;47.338;9.196;2024-03-22T11:09:26;2.60;;;1.67;;
41219;SDS011;26951;47.338;9.196;2024-03-22T11:12:10;1.15;;;1.00;;
41219;SDS011;26951;47.338;9.196;2024-03-22T11:14:56;1.20;;;1.10;;
41219;SDS011;26951;47.338;9.196;2024-03-22T11:17:40;1.42;;;1.13;;
41219;SDS011;26951;47.338;9.196;2024-03-22T11:20:27;2.30;;;1.27;;
41219;SDS011;26951;47.338;9.196;2024-03-22T11:23:11;1.52;;;1.20;;
41219;SDS011;26951;47.338;9.196;2024-03-22T11:25:56;1.33;;;1.20;;
41219;SDS011;26951;47.338;9.196;2024-03-22T11:28:41;1.60;;;1.10;;
41219;SDS011;26951;47.338;9.196;2024-03-22T11:31:27;1.33;;;1.10;;
41219;SDS011;26951;47.338;9.196;2024-03-22T11:34:11;1.63;;;1.20;;
41219;SDS011;26951;47.338;9.196;2024-03-22T11:36:55;2.55;;;1.40;;
41219;SDS011;26951;47.338;9.196;2024-03-22T11:39:39;2.22;;;1.50;;
41219;SDS011;26951;47.338;9.196;2024-03-22T11:42:23;1.33;;;1.23;;
41219;SDS011;26951;47.338;9.196;2024-03-22T11:45:11;1.77;;;1.15;;
41219;SDS011;26951;47.338;9.196;2024-03-22T11:48:01;2.83;;;1.50;;
41219;SDS011;26951;47.338;9.196;2024-03-22T11:50:46;1.70;;;1.40;;
41219;SDS011;26951;47.338;9.196;2024-03-22T11:53:30;2.83;;;1.48;;
41219;SDS011;26951;47.338;9.196;2024-03-22T11:56:17;2.28;;;1.33;;
41219;SDS011;26951;47.338;9.196;2024-03-22T11:59:04;2.80;;;1.27;;
41219;SDS011;26951;47.338;9.196;2024-03-22T12:04:34;1.40;;;1.27;;
41219;SDS011;26951;47.338;9.196;2024-03-22T12:07:18;3.42;;;1.48;;
41219;SDS011;26951;47.338;9.196;2024-03-22T12:10:02;2.83;;;1.38;;
41219;SDS011;26951;47.338;9.196;2024-03-22T12:12:47;3.65;;;1.45;;
41219;SDS011;26951;47.338;9.196;2024-03-22T12:15:31;2.80;;;1.38;;
41219;SDS011;26951;47.338;9.196;2024-03-22T12:18:15;1.40;;;1.20;;
41219;SDS011;26951;47.338;9.196;2024-03-22T12:21:00;4.57;;;1.40;;
41219;SDS011;26951;47.338;9.196;2024-03-22T12:23:44;2.70;;;1.88;;
41219;SDS011;26951;47.338;9.196;2024-03-22T12:26:28;2.78;;;1.55;;
41219;SDS011;26951;47.338;9.196;2024-03-22T12:29:12;2.63;;;1.60;;
41219;SDS011;26951;47.338;9.196;2024-03-22T12:31:56;2.42;;;1.40;;
41219;SDS011;26951;47.338;9.196;2024-03-22T12:34:40;3.40;;;1.60;;
41219;SDS011;26951;47.338;9.196;2024-03-22T12:37:25;4.57;;;1.90;;
41219;SDS011;26951;47.338;9.196;2024-03-22T12:40:09;2.38;;;1.70;;
41219;SDS011;26951;47.338;9.196;2024-03-22T12:42:54;3.28;;;1.70;;
41219;SDS011;26951;47.338;9.196;2024-03-22T12:45:38;2.78;;;2.25;;
41219;SDS011;26951;47.338;9.196;2024-03-22T12:48:22;3.05;;;1.55;;
41219;SDS011;26951;47.338;9.196;2024-03-22T12:51:07;1.55;;;1.42;;
41219;SDS011;26951;47.338;9.196;2024-03-22T12:53:51;3.53;;;1.65;;
41219;SDS011;26951;47.338;9.196;2024-03-22T12:56:36;2.53;;;1.70;;
41219;SDS011;26951;47.338;9.196;2024-03-22T12:59:22;4.10;;;2.25;;
41219;SDS011;26951;47.338;9.196;2024-03-22T13:02:07;1.98;;;1.40;;
41219;SDS011;26951;47.338;9.196;2024-03-22T13:04:52;1.52;;;1.42;;
41219;SDS011;26951;47.338;9.196;2024-03-22T13:07:37;1.73;;;1.50;;
41219;SDS011;26951;47.338;9.196;2024-03-22T13:10:21;3.58;;;1.55;;
41219;SDS011;26951;47.338;9.196;2024-03-22T13:13:05;2.33;;;1.90;;
41219;SDS011;26951;47.338;9.196;2024-03-22T13:15:49;3.55;;;2.00;;
41219;SDS011;26951;47.338;9.196;2024-03-22T13:18:33;2.60;;;1.90;;
41219;SDS011;26951;47.338;9.196;2024-03-22T13:21:17;2.38;;;2.03;;
41219;SDS011;26951;47.338;9.196;2024-03-22T13:24:02;4.03;;;1.73;;
41219;SDS011;26951;47.338;9.196;2024-03-22T13:26:46;3.85;;;2.17;;
41219;SDS011;26951;47.338;9.196;2024-03-22T13:29:31;2.40;;;1.60;;
41219;SDS011;26951;47.338;9.196;2024-03-22T13:32:15;4.40;;;2.20;;
41219;SDS011;26951;47.338;9.196;2024-03-22T13:35:00;2.45;;;1.77;;
41219;SDS011;26951;47.338;9.196;2024-03-22T13:37:44;3.75;;;1.80;;
41219;SDS011;26951;47.338;9.196;2024-03-22T13:40:28;2.05;;;1.85;;
41219;SDS011;26951;47.338;9.196;2024-03-22T13:43:13;2.63;;;1.92;;
41219;SDS011;26951;47.338;9.196;2024-03-22T13:45:57;2.78;;;1.80;;
41219;SDS011;26951;47.338;9.196;2024-03-22T13:48:41;4.18;;;1.95;;
41219;SDS011;26951;47.338;9.196;2024-03-22T13:51:25;2.85;;;1.80;;
41219;SDS011;26951;47.338;9.196;2024-03-22T13:54:12;3.72;;;1.63;;
41219;SDS011;26951;47.338;9.196;2024-03-22T13:56:56;4.82;;;2.63;;
41219;SDS011;26951;47.338;9.196;2024-03-22T13:59:40;3.67;;;2.45;;
41219;SDS011;26951;47.338;9.196;2024-03-22T14:02:24;3.13;;;1.90;;
41219;SDS011;26951;47.338;9.196;2024-03-22T14:05:09;3.03;;;1.73;;
41219;SDS011;26951;47.338;9.196;2024-03-22T14:07:53;2.13;;;1.52;;
41219;SDS011;26951;47.338;9.196;2024-03-22T14:10:38;4.88;;;2.33;;
41219;SDS011;26951;47.338;9.196;2024-03-22T14:13:22;3.00;;;1.80;;
41219;SDS011;26951;47.338;9.196;2024-03-22T14:16:06;1.88;;;1.50;;
41219;SDS011;26951;47.338;9.196;2024-03-22T14:21:36;3.72;;;2.50;;
41219;SDS011;26951;47.338;9.196;2024-03-22T14:24:22;1.60;;;1.50;;
41219;SDS011;26951;47.338;9.196;2024-03-22T14:27:06;2.47;;;1.48;;
41219;SDS011;26951;47.338;9.196;2024-03-22T14:29:50;1.65;;;1.40;;
41219;SDS011;26951;47.338;9.196;2024-03-22T14:32:35;3.47;;;1.70;;
41219;SDS011;26951;47.338;9.196;2024-03-22T14:35:19;8.48;;;1.90;;
41219;SDS011;26951;47.338;9.196;2024-03-22T14:38:06;2.38;;;1.55;;
41219;SDS011;26951;47.338;9.196;2024-03-22T14:40:50;3.30;;;1.40;;
41219;SDS011;26951;47.338;9.196;2024-03-22T14:43:36;1.60;;;1.50;;
41219;SDS011;26951;47.338;9.196;2024-03-22T14:46:20;1.88;;;1.40;;
41219;SDS011;26951;47.338;9.196;2024-03-22T14:49:08;2.40;;;1.67;;
41219;SDS011;26951;47.338;9.196;2024-03-22T14:51:52;3.15;;;1.88;;
41219;SDS011;26951;47.338;9.196;2024-03-22T14:54:36;2.50;;;1.77;;
41219;SDS011;26951;47.338;9.196;2024-03-22T14:57:20;2.53;;;1.63;;
41219;SDS011;26951;47.338;9.196;2024-03-22T15:00:04;2.92;;;1.50;;
41219;SDS011;26951;47.338;9.196;2024-03-22T15:02:53;2.72;;;1.45;;
41219;SDS011;26951;47.338;9.196;2024-03-22T15:05:37;1.60;;;1.50;;
41219;SDS011;26951;47.338;9.196;2024-03-22T15:08:21;2.88;;;1.65;;
41219;SDS011;26951;47.338;9.196;2024-03-22T15:11:06;2.25;;;1.60;;
41219;SDS011;26951;47.338;9.196;2024-03-22T15:13:50;2.25;;;1.60;;
41219;SDS011;26951;47.338;9.196;2024-03-22T15:16:34;3.47;;;2.38;;
41219;SDS011;26951;47.338;9.196;2024-03-22T15:19:19;1.83;;;1.40;;
41219;SDS011;26951;47.338;9.196;2024-03-22T15:22:05;1.55;;;1.45;;
41219;SDS011;26951;47.338;9.196;2024-03-22T15:24:49;1.77;;;1.30;;
41219;SDS011;26951;47.338;9.196;2024-03-22T15:27:34;1.63;;;1.25;;
41219;SDS011;26951;47.338;9.196;2024-03-22T15:30:18;3.28;;;1.70;;
41219;SDS011;26951;47.338;9.196;2024-03-22T15:33:03;1.77;;;1.60;;
41219;SDS011;26951;47.338;9.196;2024-03-22T15:35:47;1.75;;;1.45;;
41219;SDS011;26951;47.338;9.196;2024-03-22T15:38:33;1.73;;;1.50;;
41219;SDS011;26951;47.338;9.196;2024-03-22T15:41:17;2.53;;;1.63;;
41219;SDS011;26951;47.338;9.196;2024-03-22T15:44:03;2.35;;;1.70;;
41219;SDS011;26951;47.338;9.196;2024-03-22T15:46:47;1.92;;;1.70;;
41219;SDS011;26951;47.338;9.196;2024-03-22T15:49:31;2.40;;;2.08;;
41219;SDS011;26951;47.338;9.196;2024-03-22T15:52:15;3.00;;;1.83;;
41219;SDS011;26951;47.338;9.196;2024-03-22T15:54:59;2.58;;;1.83;;
41219;SDS011;26951;47.338;9.196;2024-03-22T15:57:43;2.47;;;1.70;;
41219;SDS011;26951;47.338;9.196;2024-03-22T16:00:27;2.58;;;1.80;;
41219;SDS011;26951;47.338;9.196;2024-03-22T16:03:11;2.00;;;1.58;;
41219;SDS011;26951;47.338;9.196;2024-03-22T16:05:57;2.20;;;2.00;;
41219;SDS011;26951;47.338;9.196;2024-03-22T16:08:42;1.60;;;1.50;;
41219;SDS011;26951;47.338;9.196;2024-03-22T16:11:26;2.17;;;1.55;;
41219;SDS011;26951;47.338;9.196;2024-03-22T16:14:10;3.75;;;1.70;;
41219;SDS011;26951;47.338;9.196;2024-03-22T16:16:54;2.10;;;1.90;;
41219;SDS011;26951;47.338;9.196;2024-03-22T16:19:38;2.20;;;1.52;;
41219;SDS011;26951;47.338;9.196;2024-03-22T16:22:23;2.80;;;1.88;;
41219;SDS011;26951;47.338;9.196;2024-03-22T16:25:07;4.40;;;1.52;;
41219;SDS011;26951;47.338;9.196;2024-03-22T16:27:51;1.70;;;1.60;;
41219;SDS011;26951;47.338;9.196;2024-03-22T16:30:36;5.77;;;1.67;;
41219;SDS011;26951;47.338;9.196;2024-03-22T16:33:20;1.50;;;1.40;;
41219;SDS011;26951;47.338;9.196;2024-03-22T16:36:08;2.75;;;2.00;;
41219;SDS011;26951;47.338;9.196;2024-03-22T16:38:53;1.92;;;1.73;;
41219;SDS011;26951;47.338;9.196;2024-03-22T16:41:37;2.97;;;1.77;;
41219;SDS011;26951;47.338;9.196;2024-03-22T16:44:21;2.47;;;1.85;;
41219;SDS011;26951;47.338;9.196;2024-03-22T16:47:05;2.28;;;1.95;;